sensor_id;sensor_type;location;lat;lon;timestamp;temperature;humidity
15698;DHT22;7949;48.726;9.102;2023-01-25T00:02:06;1.40;99.90
15698;DHT22;7949;48.726;9.102;2023-01-25T00:04:33;1.30;99.90
15698;DHT22;7949;48.726;9.102;2023-01-25T00:07:02;1.30;99.90
15698;DHT22;7949;48.726;9.102;2023-01-25T00:09:29;1.50;99.90
15698;DHT22;7949;48.726;9.102;2023-01-25T00:11:56;1.30;99.90
15698;DHT22;7949;48.726;9.102;2023-01-25T00:14:23;1.30;99.90
15698;DHT22;7949;48.726;9.102;2023-01-25T00:16:50;1.30;99.90
15698;DHT22;7949;48.726;9.102;2023-01-25T00:19:17;1.30;99.90
15698;DHT22;7949;48.726;9.102;2023-01-25T00:21:44;1.30;99.90
15698;DHT22;7949;48.726;9.102;2023-01-25T00:24:13;1.30;99.90
15698;DHT22;7949;48.726;9.102;2023-01-25T00:26:40;1.40;99.90
15698;DHT22;7949;48.726;9.102;2023-01-25T00:29:10;1.30;99.90
15698;DHT22;7949;48.726;9.102;2023-01-25T00:31:43;1.30;99.90
15698;DHT22;7949;48.726;9.102;2023-01-25T00:34:43;1.40;99.90
15698;DHT22;7949;48.726;9.102;2023-01-25T00:37:13;1.30;99.90
15698;DHT22;7949;48.726;9.102;2023-01-25T00:39:45;1.30;99.90
15698;DHT22;7949;48.726;9.102;2023-01-25T00:42:13;1.40;99.90
15698;DHT22;7949;48.726;9.102;2023-01-25T00:44:40;2.00;99.90
15698;DHT22;7949;48.726;9.102;2023-01-25T00:47:08;1.40;99.90
15698;DHT22;7949;48.726;9.102;2023-01-25T00:49:35;1.30;99.90
15698;DHT22;7949;48.726;9.102;2023-01-25T00:52:02;1.30;99.90
15698;DHT22;7949;48.726;9.102;2023-01-25T00:54:29;1.30;99.90
15698;DHT22;7949;48.726;9.102;2023-01-25T00:56:58;1.30;99.90
15698;DHT22;7949;48.726;9.102;2023-01-25T00:59:25;1.40;99.90
15698;DHT22;7949;48.726;9.102;2023-01-25T01:01:52;1.40;99.90
15698;DHT22;7949;48.726;9.102;2023-01-25T01:04:20;1.40;99.90
15698;DHT22;7949;48.726;9.102;2023-01-25T01:06:50;1.40;99.90
15698;DHT22;7949;48.726;9.102;2023-01-25T01:09:18;1.30;99.90
15698;DHT22;7949;48.726;9.102;2023-01-25T01:11:45;1.30;99.90
15698;DHT22;7949;48.726;9.102;2023-01-25T01:14:13;1.30;99.90
15698;DHT22;7949;48.726;9.102;2023-01-25T01:16:40;1.30;99.90
15698;DHT22;7949;48.726;9.102;2023-01-25T01:19:07;1.30;99.90
15698;DHT22;7949;48.726;9.102;2023-01-25T01:21:34;1.30;99.90
15698;DHT22;7949;48.726;9.102;2023-01-25T01:24:01;1.20;99.90
15698;DHT22;7949;48.726;9.102;2023-01-25T01:26:28;1.30;99.90
15698;DHT22;7949;48.726;9.102;2023-01-25T01:28:57;1.30;99.90
15698;DHT22;7949;48.726;9.102;2023-01-25T01:31:25;1.40;99.90
15698;DHT22;7949;48.726;9.102;2023-01-25T01:33:54;1.40;99.90
15698;DHT22;7949;48.726;9.102;2023-01-25T01:36:22;1.50;99.90
15698;DHT22;7949;48.726;9.102;2023-01-25T01:38:50;1.40;99.90
15698;DHT22;7949;48.726;9.102;2023-01-25T01:41:18;1.20;99.90
15698;DHT22;7949;48.726;9.102;2023-01-25T01:43:45;1.30;99.90
15698;DHT22;7949;48.726;9.102;2023-01-25T01:46:16;1.20;99.90
15698;DHT22;7949;48.726;9.102;2023-01-25T01:48:49;1.20;99.90
15698;DHT22;7949;48.726;9.102;2023-01-25T01:51:22;1.30;99.90
15698;DHT22;7949;48.726;9.102;2023-01-25T01:53:53;1.30;99.90
15698;DHT22;7949;48.726;9.102;2023-01-25T01:56:25;1.40;99.90
15698;DHT22;7949;48.726;9.102;2023-01-25T01:58:55;1.30;99.90
15698;DHT22;7949;48.726;9.102;2023-01-25T02:01:24;1.30;99.90
15698;DHT22;7949;48.726;9.102;2023-01-25T02:03:53;1.40;99.90
15698;DHT22;7949;48.726;9.102;2023-01-25T02:06:27;1.40;99.90
15698;DHT22;7949;48.726;9.102;2023-01-25T02:08:55;1.40;99.90
15698;DHT22;7949;48.726;9.102;2023-01-25T02:11:24;1.40;99.90
15698;DHT22;7949;48.726;9.102;2023-01-25T02:13:52;1.40;99.90
15698;DHT22;7949;48.726;9.102;2023-01-25T02:16:24;1.50;99.90
15698;DHT22;7949;48.726;9.102;2023-01-25T02:18:55;1.50;99.90
15698;DHT22;7949;48.726;9.102;2023-01-25T02:21:25;1.50;99.90
15698;DHT22;7949;48.726;9.102;2023-01-25T02:23:55;1.40;99.90
15698;DHT22;7949;48.726;9.102;2023-01-25T02:26:26;1.40;99.90
15698;DHT22;7949;48.726;9.102;2023-01-25T02:28:54;1.40;99.90
15698;DHT22;7949;48.726;9.102;2023-01-25T02:31:23;1.30;99.90
15698;DHT22;7949;48.726;9.102;2023-01-25T02:33:50;1.30;99.90
15698;DHT22;7949;48.726;9.102;2023-01-25T02:36:20;1.30;99.90
15698;DHT22;7949;48.726;9.102;2023-01-25T02:38:53;1.30;99.90
15698;DHT22;7949;48.726;9.102;2023-01-25T02:41:24;1.30;99.90
15698;DHT22;7949;48.726;9.102;2023-01-25T02:43:53;1.60;99.90
15698;DHT22;7949;48.726;9.102;2023-01-25T02:46:22;1.30;99.90
15698;DHT22;7949;48.726;9.102;2023-01-25T02:48:52;1.30;99.90
15698;DHT22;7949;48.726;9.102;2023-01-25T02:51:20;1.20;99.90
15698;DHT22;7949;48.726;9.102;2023-01-25T02:53:48;1.30;99.90
15698;DHT22;7949;48.726;9.102;2023-01-25T02:56:15;1.40;99.90
15698;DHT22;7949;48.726;9.102;2023-01-25T02:58:42;1.20;99.90
15698;DHT22;7949;48.726;9.102;2023-01-25T03:01:11;1.20;99.90
15698;DHT22;7949;48.726;9.102;2023-01-25T03:03:39;1.20;99.90
15698;DHT22;7949;48.726;9.102;2023-01-25T03:06:06;1.30;99.90
15698;DHT22;7949;48.726;9.102;2023-01-25T03:08:33;1.40;99.90
15698;DHT22;7949;48.726;9.102;2023-01-25T03:11:02;1.30;99.90
15698;DHT22;7949;48.726;9.102;2023-01-25T03:13:30;1.30;99.90
15698;DHT22;7949;48.726;9.102;2023-01-25T03:15:58;1.30;99.90
15698;DHT22;7949;48.726;9.102;2023-01-25T03:18:27;1.30;99.90
15698;DHT22;7949;48.726;9.102;2023-01-25T03:20:54;1.20;99.90
15698;DHT22;7949;48.726;9.102;2023-01-25T03:23:21;1.30;99.90
15698;DHT22;7949;48.726;9.102;2023-01-25T03:25:48;1.30;99.90
15698;DHT22;7949;48.726;9.102;2023-01-25T03:28:15;1.30;99.90
15698;DHT22;7949;48.726;9.102;2023-01-25T03:30:41;1.30;99.90
15698;DHT22;7949;48.726;9.102;2023-01-25T03:33:08;1.30;99.90
15698;DHT22;7949;48.726;9.102;2023-01-25T03:35:36;1.30;99.90
15698;DHT22;7949;48.726;9.102;2023-01-25T03:38:03;1.20;99.90
15698;DHT22;7949;48.726;9.102;2023-01-25T03:40:30;1.20;99.90
15698;DHT22;7949;48.726;9.102;2023-01-25T03:42:56;1.40;99.90
15698;DHT22;7949;48.726;9.102;2023-01-25T03:45:23;1.30;99.90
15698;DHT22;7949;48.726;9.102;2023-01-25T03:47:50;1.20;99.90
15698;DHT22;7949;48.726;9.102;2023-01-25T03:50:17;1.20;99.90
15698;DHT22;7949;48.726;9.102;2023-01-25T03:52:45;1.20;99.90
15698;DHT22;7949;48.726;9.102;2023-01-25T03:55:15;1.40;99.90
15698;DHT22;7949;48.726;9.102;2023-01-25T03:57:42;1.30;99.90
15698;DHT22;7949;48.726;9.102;2023-01-25T04:00:10;1.20;99.90
15698;DHT22;7949;48.726;9.102;2023-01-25T04:02:37;1.30;99.90
15698;DHT22;7949;48.726;9.102;2023-01-25T04:05:05;1.30;99.90
15698;DHT22;7949;48.726;9.102;2023-01-25T04:07:32;1.30;99.90
15698;DHT22;7949;48.726;9.102;2023-01-25T04:10:00;1.20;99.90
15698;DHT22;7949;48.726;9.102;2023-01-25T04:12:27;1.20;99.90
15698;DHT22;7949;48.726;9.102;2023-01-25T04:14:54;1.20;99.90
15698;DHT22;7949;48.726;9.102;2023-01-25T04:17:20;1.20;99.90
15698;DHT22;7949;48.726;9.102;2023-01-25T04:19:47;1.20;99.90
15698;DHT22;7949;48.726;9.102;2023-01-25T04:22:15;1.20;99.90
15698;DHT22;7949;48.726;9.102;2023-01-25T04:24:42;1.40;99.90
15698;DHT22;7949;48.726;9.102;2023-01-25T04:27:10;1.40;99.90
15698;DHT22;7949;48.726;9.102;2023-01-25T04:29:36;1.40;99.90
15698;DHT22;7949;48.726;9.102;2023-01-25T04:32:04;2.00;99.90
15698;DHT22;7949;48.726;9.102;2023-01-25T04:34:30;1.40;99.90
15698;DHT22;7949;48.726;9.102;2023-01-25T04:36:57;1.40;99.90
15698;DHT22;7949;48.726;9.102;2023-01-25T04:39:24;1.30;99.90
15698;DHT22;7949;48.726;9.102;2023-01-25T04:41:51;1.30;99.90
15698;DHT22;7949;48.726;9.102;2023-01-25T04:44:19;1.30;99.90
15698;DHT22;7949;48.726;9.102;2023-01-25T04:46:46;1.30;99.90
15698;DHT22;7949;48.726;9.102;2023-01-25T04:49:13;1.20;99.90
15698;DHT22;7949;48.726;9.102;2023-01-25T04:51:40;1.10;99.90
15698;DHT22;7949;48.726;9.102;2023-01-25T04:54:07;1.20;99.90
15698;DHT22;7949;48.726;9.102;2023-01-25T04:56:33;1.20;99.90
15698;DHT22;7949;48.726;9.102;2023-01-25T04:59:00;1.20;99.90
15698;DHT22;7949;48.726;9.102;2023-01-25T05:01:29;1.30;99.90
15698;DHT22;7949;48.726;9.102;2023-01-25T05:03:57;1.30;99.90
15698;DHT22;7949;48.726;9.102;2023-01-25T05:06:24;1.30;99.90
15698;DHT22;7949;48.726;9.102;2023-01-25T05:08:51;1.30;99.90
15698;DHT22;7949;48.726;9.102;2023-01-25T05:11:18;1.30;99.90
15698;DHT22;7949;48.726;9.102;2023-01-25T05:13:45;1.20;99.90
15698;DHT22;7949;48.726;9.102;2023-01-25T05:16:12;1.20;99.90
15698;DHT22;7949;48.726;9.102;2023-01-25T05:18:41;1.10;99.90
15698;DHT22;7949;48.726;9.102;2023-01-25T05:21:08;1.30;99.90
15698;DHT22;7949;48.726;9.102;2023-01-25T05:23:55;1.20;99.90
15698;DHT22;7949;48.726;9.102;2023-01-25T05:26:22;1.30;99.90
15698;DHT22;7949;48.726;9.102;2023-01-25T05:29:07;1.20;99.90
15698;DHT22;7949;48.726;9.102;2023-01-25T05:31:34;1.30;99.90
15698;DHT22;7949;48.726;9.102;2023-01-25T05:34:03;1.30;99.90
15698;DHT22;7949;48.726;9.102;2023-01-25T05:36:30;1.20;99.90
15698;DHT22;7949;48.726;9.102;2023-01-25T05:38:57;1.20;99.90
15698;DHT22;7949;48.726;9.102;2023-01-25T05:41:23;1.20;99.90
15698;DHT22;7949;48.726;9.102;2023-01-25T05:43:50;1.20;99.90
15698;DHT22;7949;48.726;9.102;2023-01-25T05:46:17;1.30;99.90
15698;DHT22;7949;48.726;9.102;2023-01-25T05:48:46;1.30;99.90
15698;DHT22;7949;48.726;9.102;2023-01-25T05:51:14;1.30;99.90
15698;DHT22;7949;48.726;9.102;2023-01-25T05:53:41;1.20;99.90
15698;DHT22;7949;48.726;9.102;2023-01-25T05:56:08;1.20;99.90
15698;DHT22;7949;48.726;9.102;2023-01-25T05:58:35;1.20;99.90
15698;DHT22;7949;48.726;9.102;2023-01-25T06:01:04;1.20;99.90
15698;DHT22;7949;48.726;9.102;2023-01-25T06:03:31;1.30;99.90
15698;DHT22;7949;48.726;9.102;2023-01-25T06:05:59;1.30;99.90
15698;DHT22;7949;48.726;9.102;2023-01-25T06:08:28;1.30;99.90
15698;DHT22;7949;48.726;9.102;2023-01-25T06:10:55;1.30;99.90
15698;DHT22;7949;48.726;9.102;2023-01-25T06:13:23;1.40;99.90
15698;DHT22;7949;48.726;9.102;2023-01-25T06:15:53;1.30;99.90
15698;DHT22;7949;48.726;9.102;2023-01-25T06:18:20;1.30;99.90
15698;DHT22;7949;48.726;9.102;2023-01-25T06:20:49;1.30;99.90
15698;DHT22;7949;48.726;9.102;2023-01-25T06:23:17;1.20;99.90
15698;DHT22;7949;48.726;9.102;2023-01-25T06:25:45;1.20;99.90
15698;DHT22;7949;48.726;9.102;2023-01-25T06:28:12;1.20;99.90
15698;DHT22;7949;48.726;9.102;2023-01-25T06:30:39;1.20;99.90
15698;DHT22;7949;48.726;9.102;2023-01-25T06:33:07;1.20;99.90
15698;DHT22;7949;48.726;9.102;2023-01-25T06:35:34;1.20;99.90
15698;DHT22;7949;48.726;9.102;2023-01-25T06:38:02;1.30;99.90
15698;DHT22;7949;48.726;9.102;2023-01-25T06:40:29;1.20;99.90
15698;DHT22;7949;48.726;9.102;2023-01-25T06:43:05;1.20;99.90
15698;DHT22;7949;48.726;9.102;2023-01-25T06:45:31;1.20;99.90
15698;DHT22;7949;48.726;9.102;2023-01-25T06:47:58;1.10;99.90
15698;DHT22;7949;48.726;9.102;2023-01-25T06:50:25;1.20;99.90
15698;DHT22;7949;48.726;9.102;2023-01-25T06:52:52;1.20;99.90
15698;DHT22;7949;48.726;9.102;2023-01-25T06:55:20;1.10;99.90
15698;DHT22;7949;48.726;9.102;2023-01-25T06:57:47;1.10;99.90
15698;DHT22;7949;48.726;9.102;2023-01-25T07:00:18;1.20;99.90
15698;DHT22;7949;48.726;9.102;2023-01-25T07:02:45;1.20;99.90
15698;DHT22;7949;48.726;9.102;2023-01-25T07:05:12;1.20;99.90
15698;DHT22;7949;48.726;9.102;2023-01-25T07:07:39;1.10;99.90
15698;DHT22;7949;48.726;9.102;2023-01-25T07:10:10;1.20;99.90
15698;DHT22;7949;48.726;9.102;2023-01-25T07:12:37;1.30;99.90
15698;DHT22;7949;48.726;9.102;2023-01-25T07:15:04;1.20;99.90
15698;DHT22;7949;48.726;9.102;2023-01-25T07:17:32;1.20;99.90
15698;DHT22;7949;48.726;9.102;2023-01-25T07:19:59;1.30;99.90
15698;DHT22;7949;48.726;9.102;2023-01-25T07:22:26;1.30;99.90
15698;DHT22;7949;48.726;9.102;2023-01-25T07:24:53;1.30;99.90
15698;DHT22;7949;48.726;9.102;2023-01-25T07:27:22;1.70;99.90
15698;DHT22;7949;48.726;9.102;2023-01-25T07:29:49;1.70;99.90
15698;DHT22;7949;48.726;9.102;2023-01-25T07:32:16;1.70;99.90
15698;DHT22;7949;48.726;9.102;2023-01-25T07:34:44;1.60;99.90
15698;DHT22;7949;48.726;9.102;2023-01-25T07:37:11;1.40;99.90
15698;DHT22;7949;48.726;9.102;2023-01-25T07:39:40;1.50;99.90
15698;DHT22;7949;48.726;9.102;2023-01-25T07:42:12;1.50;99.90
15698;DHT22;7949;48.726;9.102;2023-01-25T07:44:39;1.50;99.90
15698;DHT22;7949;48.726;9.102;2023-01-25T07:47:06;1.40;99.90
15698;DHT22;7949;48.726;9.102;2023-01-25T07:49:33;1.40;99.90
15698;DHT22;7949;48.726;9.102;2023-01-25T07:52:02;1.30;99.90
15698;DHT22;7949;48.726;9.102;2023-01-25T07:54:29;1.40;99.90
15698;DHT22;7949;48.726;9.102;2023-01-25T07:56:56;1.40;99.90
15698;DHT22;7949;48.726;9.102;2023-01-25T07:59:26;1.40;99.90
15698;DHT22;7949;48.726;9.102;2023-01-25T08:01:53;1.50;99.90
15698;DHT22;7949;48.726;9.102;2023-01-25T08:04:20;1.50;99.90
15698;DHT22;7949;48.726;9.102;2023-01-25T08:06:47;1.50;99.90
15698;DHT22;7949;48.726;9.102;2023-01-25T08:09:17;1.50;99.90
15698;DHT22;7949;48.726;9.102;2023-01-25T08:11:44;1.40;99.90
15698;DHT22;7949;48.726;9.102;2023-01-25T08:14:11;1.40;99.90
15698;DHT22;7949;48.726;9.102;2023-01-25T08:16:38;1.40;99.90
15698;DHT22;7949;48.726;9.102;2023-01-25T08:19:05;1.40;99.90
15698;DHT22;7949;48.726;9.102;2023-01-25T08:21:34;1.40;99.90
15698;DHT22;7949;48.726;9.102;2023-01-25T08:24:03;1.30;99.90
15698;DHT22;7949;48.726;9.102;2023-01-25T08:26:32;1.40;99.90
15698;DHT22;7949;48.726;9.102;2023-01-25T08:28:59;1.40;99.90
15698;DHT22;7949;48.726;9.102;2023-01-25T08:31:30;2.00;99.90
15698;DHT22;7949;48.726;9.102;2023-01-25T08:34:05;1.50;99.90
15698;DHT22;7949;48.726;9.102;2023-01-25T08:36:33;1.50;99.90
15698;DHT22;7949;48.726;9.102;2023-01-25T08:39:03;1.50;99.90
15698;DHT22;7949;48.726;9.102;2023-01-25T08:41:33;1.50;99.90
15698;DHT22;7949;48.726;9.102;2023-01-25T08:44:00;1.50;99.90
15698;DHT22;7949;48.726;9.102;2023-01-25T08:46:30;1.40;99.90
15698;DHT22;7949;48.726;9.102;2023-01-25T08:48:58;1.40;99.90
15698;DHT22;7949;48.726;9.102;2023-01-25T08:51:25;1.50;99.90
15698;DHT22;7949;48.726;9.102;2023-01-25T08:53:52;1.50;99.90
15698;DHT22;7949;48.726;9.102;2023-01-25T08:56:19;1.60;99.90
15698;DHT22;7949;48.726;9.102;2023-01-25T08:58:49;1.50;99.90
15698;DHT22;7949;48.726;9.102;2023-01-25T09:01:17;1.50;99.90
15698;DHT22;7949;48.726;9.102;2023-01-25T09:03:50;1.50;99.90
15698;DHT22;7949;48.726;9.102;2023-01-25T09:06:17;1.40;99.90
15698;DHT22;7949;48.726;9.102;2023-01-25T09:08:44;1.50;99.90
15698;DHT22;7949;48.726;9.102;2023-01-25T09:11:13;1.60;99.90
15698;DHT22;7949;48.726;9.102;2023-01-25T09:13:40;1.50;99.90
15698;DHT22;7949;48.726;9.102;2023-01-25T09:16:11;1.60;99.90
15698;DHT22;7949;48.726;9.102;2023-01-25T09:18:39;1.70;99.90
15698;DHT22;7949;48.726;9.102;2023-01-25T09:21:07;1.70;99.90
15698;DHT22;7949;48.726;9.102;2023-01-25T09:23:34;1.70;99.90
15698;DHT22;7949;48.726;9.102;2023-01-25T09:26:01;1.70;99.90
15698;DHT22;7949;48.726;9.102;2023-01-25T09:28:29;1.60;99.90
15698;DHT22;7949;48.726;9.102;2023-01-25T09:30:57;1.60;99.90
15698;DHT22;7949;48.726;9.102;2023-01-25T09:33:26;1.70;99.90
15698;DHT22;7949;48.726;9.102;2023-01-25T09:35:53;1.80;99.90
15698;DHT22;7949;48.726;9.102;2023-01-25T09:38:20;1.80;99.90
15698;DHT22;7949;48.726;9.102;2023-01-25T09:40:59;1.80;99.90
15698;DHT22;7949;48.726;9.102;2023-01-25T09:43:38;1.80;99.90
15698;DHT22;7949;48.726;9.102;2023-01-25T09:46:16;1.70;99.90
15698;DHT22;7949;48.726;9.102;2023-01-25T09:48:55;1.60;99.90
15698;DHT22;7949;48.726;9.102;2023-01-25T09:51:32;1.60;99.90
15698;DHT22;7949;48.726;9.102;2023-01-25T09:54:03;1.60;99.90
15698;DHT22;7949;48.726;9.102;2023-01-25T09:56:35;1.80;99.90
15698;DHT22;7949;48.726;9.102;2023-01-25T09:59:04;1.80;99.90
15698;DHT22;7949;48.726;9.102;2023-01-25T10:01:43;1.50;99.90
15698;DHT22;7949;48.726;9.102;2023-01-25T10:04:16;1.60;99.90
15698;DHT22;7949;48.726;9.102;2023-01-25T10:06:46;1.60;99.90
15698;DHT22;7949;48.726;9.102;2023-01-25T10:09:24;1.60;99.90
15698;DHT22;7949;48.726;9.102;2023-01-25T10:11:53;1.60;99.90
15698;DHT22;7949;48.726;9.102;2023-01-25T10:14:20;1.60;99.90
15698;DHT22;7949;48.726;9.102;2023-01-25T10:17:05;1.60;99.90
15698;DHT22;7949;48.726;9.102;2023-01-25T10:19:48;1.60;99.90
15698;DHT22;7949;48.726;9.102;2023-01-25T10:22:20;1.70;99.90
15698;DHT22;7949;48.726;9.102;2023-01-25T10:25:11;1.50;99.90
15698;DHT22;7949;48.726;9.102;2023-01-25T10:27:52;1.40;99.90
15698;DHT22;7949;48.726;9.102;2023-01-25T10:30:25;1.50;99.90
15698;DHT22;7949;48.726;9.102;2023-01-25T10:32:55;1.60;99.90
15698;DHT22;7949;48.726;9.102;2023-01-25T10:35:27;1.60;99.90
15698;DHT22;7949;48.726;9.102;2023-01-25T10:38:00;1.60;99.90
15698;DHT22;7949;48.726;9.102;2023-01-25T10:40:37;1.70;99.90
15698;DHT22;7949;48.726;9.102;2023-01-25T10:43:12;1.70;99.90
15698;DHT22;7949;48.726;9.102;2023-01-25T10:45:41;1.70;99.90
15698;DHT22;7949;48.726;9.102;2023-01-25T10:48:13;1.60;99.90
15698;DHT22;7949;48.726;9.102;2023-01-25T10:50:45;1.70;99.90
15698;DHT22;7949;48.726;9.102;2023-01-25T10:53:24;1.70;99.90
15698;DHT22;7949;48.726;9.102;2023-01-25T10:56:15;1.70;99.90
15698;DHT22;7949;48.726;9.102;2023-01-25T10:58:45;1.70;99.90
15698;DHT22;7949;48.726;9.102;2023-01-25T11:01:24;1.80;99.90
15698;DHT22;7949;48.726;9.102;2023-01-25T11:03:52;1.70;99.90
15698;DHT22;7949;48.726;9.102;2023-01-25T11:06:31;1.90;99.90
15698;DHT22;7949;48.726;9.102;2023-01-25T11:08:58;1.80;99.90
15698;DHT22;7949;48.726;9.102;2023-01-25T11:11:30;1.80;99.90
15698;DHT22;7949;48.726;9.102;2023-01-25T11:13:57;1.80;99.90
15698;DHT22;7949;48.726;9.102;2023-01-25T11:16:30;1.80;99.90
15698;DHT22;7949;48.726;9.102;2023-01-25T11:18:59;1.60;99.90
15698;DHT22;7949;48.726;9.102;2023-01-25T11:21:30;1.70;99.90
15698;DHT22;7949;48.726;9.102;2023-01-25T11:26:46;1.90;99.90
15698;DHT22;7949;48.726;9.102;2023-01-25T11:29:15;1.90;99.90
15698;DHT22;7949;48.726;9.102;2023-01-25T11:31:43;1.80;99.90
15698;DHT22;7949;48.726;9.102;2023-01-25T11:34:13;1.90;99.90
15698;DHT22;7949;48.726;9.102;2023-01-25T11:36:52;1.80;99.90
15698;DHT22;7949;48.726;9.102;2023-01-25T11:39:33;1.90;99.90
15698;DHT22;7949;48.726;9.102;2023-01-25T11:42:16;1.80;99.90
15698;DHT22;7949;48.726;9.102;2023-01-25T11:45:11;1.80;99.90
15698;DHT22;7949;48.726;9.102;2023-01-25T11:47:57;1.90;99.90
15698;DHT22;7949;48.726;9.102;2023-01-25T11:50:32;1.90;99.90
15698;DHT22;7949;48.726;9.102;2023-01-25T11:53:31;1.80;99.90
15698;DHT22;7949;48.726;9.102;2023-01-25T11:56:06;2.00;99.90
15698;DHT22;7949;48.726;9.102;2023-01-25T11:58:49;1.90;99.90
15698;DHT22;7949;48.726;9.102;2023-01-25T12:01:26;1.70;99.90
15698;DHT22;7949;48.726;9.102;2023-01-25T12:04:28;1.80;99.90
15698;DHT22;7949;48.726;9.102;2023-01-25T12:06:59;1.80;99.90
15698;DHT22;7949;48.726;9.102;2023-01-25T12:09:39;1.90;99.90
15698;DHT22;7949;48.726;9.102;2023-01-25T12:12:15;2.40;99.90
15698;DHT22;7949;48.726;9.102;2023-01-25T12:17:48;1.70;99.90
15698;DHT22;7949;48.726;9.102;2023-01-25T12:20:33;1.70;99.90
15698;DHT22;7949;48.726;9.102;2023-01-25T12:23:19;1.90;99.90
15698;DHT22;7949;48.726;9.102;2023-01-25T12:26:03;1.80;99.90
15698;DHT22;7949;48.726;9.102;2023-01-25T12:28:36;1.80;99.90
15698;DHT22;7949;48.726;9.102;2023-01-25T12:31:10;2.20;99.90
15698;DHT22;7949;48.726;9.102;2023-01-25T12:33:41;1.80;99.90
15698;DHT22;7949;48.726;9.102;2023-01-25T12:36:13;2.70;99.90
15698;DHT22;7949;48.726;9.102;2023-01-25T12:38:49;1.80;99.90
15698;DHT22;7949;48.726;9.102;2023-01-25T12:41:27;1.70;99.90
15698;DHT22;7949;48.726;9.102;2023-01-25T12:44:02;1.80;99.90
15698;DHT22;7949;48.726;9.102;2023-01-25T12:46:37;1.90;99.90
15698;DHT22;7949;48.726;9.102;2023-01-25T12:49:14;1.80;99.90
15698;DHT22;7949;48.726;9.102;2023-01-25T12:51:44;1.70;99.90
15698;DHT22;7949;48.726;9.102;2023-01-25T12:54:16;1.80;99.90
15698;DHT22;7949;48.726;9.102;2023-01-25T12:56:51;1.80;99.90
15698;DHT22;7949;48.726;9.102;2023-01-25T12:59:26;2.40;99.90
15698;DHT22;7949;48.726;9.102;2023-01-25T13:02:06;1.70;99.90
15698;DHT22;7949;48.726;9.102;2023-01-25T13:04:48;1.70;99.90
15698;DHT22;7949;48.726;9.102;2023-01-25T13:07:23;1.70;99.90
15698;DHT22;7949;48.726;9.102;2023-01-25T13:09:57;1.60;99.90
15698;DHT22;7949;48.726;9.102;2023-01-25T13:12:26;1.50;99.90
15698;DHT22;7949;48.726;9.102;2023-01-25T13:14:53;1.30;99.90
15698;DHT22;7949;48.726;9.102;2023-01-25T13:17:29;1.40;99.90
15698;DHT22;7949;48.726;9.102;2023-01-25T13:19:57;1.60;99.90
15698;DHT22;7949;48.726;9.102;2023-01-25T13:22:52;1.80;99.90
15698;DHT22;7949;48.726;9.102;2023-01-25T13:25:24;1.60;99.90
15698;DHT22;7949;48.726;9.102;2023-01-25T13:30:59;1.50;99.90
15698;DHT22;7949;48.726;9.102;2023-01-25T13:33:31;1.50;99.90
15698;DHT22;7949;48.726;9.102;2023-01-25T13:39:41;1.50;99.90
15698;DHT22;7949;48.726;9.102;2023-01-25T13:42:22;1.40;99.90
15698;DHT22;7949;48.726;9.102;2023-01-25T13:44:53;1.50;99.90
15698;DHT22;7949;48.726;9.102;2023-01-25T13:47:22;1.50;99.90
15698;DHT22;7949;48.726;9.102;2023-01-25T13:49:55;1.40;99.90
15698;DHT22;7949;48.726;9.102;2023-01-25T13:52:24;1.30;99.90
15698;DHT22;7949;48.726;9.102;2023-01-25T13:54:54;1.30;99.90
15698;DHT22;7949;48.726;9.102;2023-01-25T13:57:24;1.40;99.90
15698;DHT22;7949;48.726;9.102;2023-01-25T13:59:59;1.50;99.90
15698;DHT22;7949;48.726;9.102;2023-01-25T14:02:27;1.50;99.90
15698;DHT22;7949;48.726;9.102;2023-01-25T14:04:55;1.50;99.90
15698;DHT22;7949;48.726;9.102;2023-01-25T14:07:29;1.50;99.90
15698;DHT22;7949;48.726;9.102;2023-01-25T14:09:59;1.50;99.90
15698;DHT22;7949;48.726;9.102;2023-01-25T14:12:34;1.40;99.90
15698;DHT22;7949;48.726;9.102;2023-01-25T14:15:21;1.30;99.90
15698;DHT22;7949;48.726;9.102;2023-01-25T14:18:11;1.20;99.90
15698;DHT22;7949;48.726;9.102;2023-01-25T14:20:39;1.30;99.90
15698;DHT22;7949;48.726;9.102;2023-01-25T14:23:19;1.30;99.90
15698;DHT22;7949;48.726;9.102;2023-01-25T14:25:46;1.30;99.90
15698;DHT22;7949;48.726;9.102;2023-01-25T14:28:13;1.20;99.90
15698;DHT22;7949;48.726;9.102;2023-01-25T14:30:42;1.10;99.90
15698;DHT22;7949;48.726;9.102;2023-01-25T14:33:16;1.30;99.90
15698;DHT22;7949;48.726;9.102;2023-01-25T14:35:44;1.30;99.90
15698;DHT22;7949;48.726;9.102;2023-01-25T14:38:27;1.20;99.90
15698;DHT22;7949;48.726;9.102;2023-01-25T14:40:57;1.20;99.90
15698;DHT22;7949;48.726;9.102;2023-01-25T14:43:24;1.10;99.90
15698;DHT22;7949;48.726;9.102;2023-01-25T14:45:53;1.10;99.90
15698;DHT22;7949;48.726;9.102;2023-01-25T14:48:33;1.10;99.90
15698;DHT22;7949;48.726;9.102;2023-01-25T14:51:08;1.00;99.90
15698;DHT22;7949;48.726;9.102;2023-01-25T14:53:38;0.90;99.90
15698;DHT22;7949;48.726;9.102;2023-01-25T14:56:17;1.00;99.90
15698;DHT22;7949;48.726;9.102;2023-01-25T14:58:47;1.00;99.90
15698;DHT22;7949;48.726;9.102;2023-01-25T15:01:24;1.00;99.90
15698;DHT22;7949;48.726;9.102;2023-01-25T15:03:51;1.10;99.90
15698;DHT22;7949;48.726;9.102;2023-01-25T15:06:18;1.00;99.90
15698;DHT22;7949;48.726;9.102;2023-01-25T15:08:45;0.90;99.90
15698;DHT22;7949;48.726;9.102;2023-01-25T15:11:28;0.90;99.90
15698;DHT22;7949;48.726;9.102;2023-01-25T15:14:14;1.00;99.90
15698;DHT22;7949;48.726;9.102;2023-01-25T15:16:42;1.10;99.90
15698;DHT22;7949;48.726;9.102;2023-01-25T15:19:24;1.10;99.90
15698;DHT22;7949;48.726;9.102;2023-01-25T15:21:53;1.10;99.90
15698;DHT22;7949;48.726;9.102;2023-01-25T15:24:20;1.00;99.90
15698;DHT22;7949;48.726;9.102;2023-01-25T15:26:49;1.00;99.90
15698;DHT22;7949;48.726;9.102;2023-01-25T15:29:18;1.00;99.90
15698;DHT22;7949;48.726;9.102;2023-01-25T15:31:48;1.10;99.90
15698;DHT22;7949;48.726;9.102;2023-01-25T15:34:17;1.10;99.90
15698;DHT22;7949;48.726;9.102;2023-01-25T15:36:44;1.00;99.90
15698;DHT22;7949;48.726;9.102;2023-01-25T15:39:13;0.90;99.90
15698;DHT22;7949;48.726;9.102;2023-01-25T15:41:40;1.00;99.90
15698;DHT22;7949;48.726;9.102;2023-01-25T15:44:08;1.10;99.90
15698;DHT22;7949;48.726;9.102;2023-01-25T15:46:36;0.90;99.90
15698;DHT22;7949;48.726;9.102;2023-01-25T15:49:06;0.80;99.90
15698;DHT22;7949;48.726;9.102;2023-01-25T15:51:33;0.90;99.90
15698;DHT22;7949;48.726;9.102;2023-01-25T15:54:00;0.80;99.90
15698;DHT22;7949;48.726;9.102;2023-01-25T15:56:29;0.70;99.90
15698;DHT22;7949;48.726;9.102;2023-01-25T15:58:58;0.80;99.90
15698;DHT22;7949;48.726;9.102;2023-01-25T16:01:26;0.80;99.90
15698;DHT22;7949;48.726;9.102;2023-01-25T16:03:54;0.80;99.90
15698;DHT22;7949;48.726;9.102;2023-01-25T16:06:31;0.80;99.90
15698;DHT22;7949;48.726;9.102;2023-01-25T16:09:02;0.90;99.90
15698;DHT22;7949;48.726;9.102;2023-01-25T16:11:29;0.90;99.90
15698;DHT22;7949;48.726;9.102;2023-01-25T16:13:56;1.00;99.90
15698;DHT22;7949;48.726;9.102;2023-01-25T16:16:24;0.90;99.90
15698;DHT22;7949;48.726;9.102;2023-01-25T16:18:51;0.90;99.90
15698;DHT22;7949;48.726;9.102;2023-01-25T16:21:18;0.80;99.90
15698;DHT22;7949;48.726;9.102;2023-01-25T16:23:46;0.70;99.90
15698;DHT22;7949;48.726;9.102;2023-01-25T16:26:17;0.80;99.90
15698;DHT22;7949;48.726;9.102;2023-01-25T16:28:45;1.00;99.90
15698;DHT22;7949;48.726;9.102;2023-01-25T16:31:12;0.90;99.90
15698;DHT22;7949;48.726;9.102;2023-01-25T16:33:39;0.80;99.90
15698;DHT22;7949;48.726;9.102;2023-01-25T16:36:12;0.80;99.90